Pagrindinis puslapis
METAR-TAF:

METAR-TAF

Oro uostai :

Visbis, Gotlandas, Švedija

platuma: 57-40N, ilguma: 018-21E, Aukštis: 51 m

Dabartinis oras

Ataskaita buvo paskelbta 23 minutes, ne 14:20 UTC
Vėjas 13 kt iš Pietvakarių
Temperatūra 6°C
Drėgmė 75%
Slėgis 1006 hPa
Matomumas 10 km arba daugiau
nėra debesų žemiau 1500 m ir nėra kamuolinių lietaus debesų

METAR: ESSV 211420Z 23013KT CAVOK 06/02 Q1006 R21/29//83

Laikas: 15:43 (14:43 UTC)

Prognozė

Ataskaita buvo paskelbta 13 minutes, ne 14:30 UTC
Prognozė galioja nuo 21 metu 15 UTC su 21 metu 23 UTC
Vėjas 16 kt iš Vakarų/Pietvakarių
Matomumas 10 km arba daugiau
nėra debesų žemiau 1500 m ir nėra kamuolinių lietaus debesų

TAF: ESSV 211430Z 2115/2123 25016KT CAVOK

Orai ataskaitas ir orų prognozės (METAR, TAF).

turimą stotys yra geltonos ir raudonos taškus žemėlapyje.

Perkelti pele per norėdami pamatyti stoties vardą.

Tada spustelėkite, norėdami matyti oro stebėjimo ir prognozės.

Norėdami pakeisti žemėlapį: spustelėkite ant žalios mygtukų su juodo kryžiaus žemyn,; žalią mygtuką su brūkšneliu, jei norite nutolinti; arba žalių rodyklių gretimoms žemėlapius.


METAR-TAF: